createdAt,value
2023-02-17T00:00:08.689Z,100802.03
2023-02-17T00:02:37.775Z,100795.22
2023-02-17T00:05:07.104Z,100793.50
2023-02-17T00:07:35.764Z,100793.78
2023-02-17T00:10:04.599Z,100795.09
2023-02-17T00:12:32.888Z,100800.81
2023-02-17T00:15:00.945Z,100796.31
2023-02-17T00:17:30.068Z,100784.78
2023-02-17T00:19:58.428Z,100789.72
2023-02-17T00:22:26.796Z,100772.75
2023-02-17T00:24:55.371Z,100774.31
2023-02-17T00:27:23.697Z,100774.94
2023-02-17T00:29:53.714Z,100782.06
2023-02-17T00:32:22.108Z,100767.88
2023-02-17T00:34:52.919Z,100785.53
2023-02-17T00:37:21.404Z,100777.69
2023-02-17T00:39:50.123Z,100790.09
2023-02-17T00:42:19.630Z,100795.00
2023-02-17T00:44:48.072Z,100789.34
2023-02-17T00:47:16.277Z,100796.75
2023-02-17T00:49:44.770Z,100794.06
2023-02-17T00:52:13.133Z,100782.72
2023-02-17T00:54:41.997Z,100781.34
2023-02-17T00:57:11.636Z,100785.19
2023-02-17T00:59:42.779Z,100778.88
2023-02-17T01:02:11.065Z,100774.50
2023-02-17T01:04:39.676Z,100767.62
2023-02-17T01:07:07.832Z,100783.28
2023-02-17T01:09:35.954Z,100774.28
2023-02-17T01:12:05.782Z,100769.63
2023-02-17T01:14:34.098Z,100776.56
2023-02-17T01:17:02.289Z,100779.22
2023-02-17T01:19:30.938Z,100783.75
2023-02-17T01:21:59.371Z,100774.91
2023-02-17T01:24:28.427Z,100777.97
2023-02-17T01:26:57.355Z,100779.50
2023-02-17T01:29:28.035Z,100787.91
2023-02-17T01:31:56.950Z,100780.81
2023-02-17T01:34:25.066Z,100774.12
2023-02-17T01:36:53.285Z,100776.97
2023-02-17T01:39:21.703Z,100774.81
2023-02-17T01:41:49.836Z,100774.88
2023-02-17T01:44:21.999Z,100774.81
2023-02-17T01:46:53.128Z,100765.00
2023-02-17T01:49:33.176Z,100758.22
2023-02-17T01:52:13.739Z,100773.19
2023-02-17T01:54:51.876Z,100762.50
2023-02-17T01:57:23.788Z,100761.47
2023-02-17T01:59:52.638Z,100768.00
2023-02-17T02:02:21.985Z,100759.94
2023-02-17T02:04:53.981Z,100753.13
2023-02-17T02:07:28.886Z,100743.28
2023-02-17T02:09:59.625Z,100750.31
2023-02-17T02:12:33.936Z,100751.69
2023-02-17T02:15:08.269Z,100744.72
2023-02-17T02:17:55.012Z,100747.09
2023-02-17T02:20:47.756Z,100740.19
2023-02-17T02:23:56.332Z,100741.41
2023-02-17T02:26:43.835Z,100734.22
2023-02-17T02:29:23.929Z,100734.44
2023-02-17T02:32:47.354Z,100724.38
2023-02-17T02:35:44.479Z,100724.63
2023-02-17T02:38:22.296Z,100723.47
2023-02-17T02:40:57.030Z,100728.41
2023-02-17T02:43:26.986Z,100713.88
2023-02-17T02:45:55.259Z,100723.00
2023-02-17T02:48:23.482Z,100721.78
2023-02-17T02:51:14.147Z,100719.16
2023-02-17T02:54:09.022Z,100726.88
2023-02-17T02:56:54.700Z,100721.31
2023-02-17T02:59:34.831Z,100717.81
2023-02-17T03:02:29.952Z,100713.28
2023-02-17T03:05:20.016Z,100719.31
2023-02-17T03:08:10.421Z,100722.00
2023-02-17T03:10:51.180Z,100707.87
2023-02-17T03:13:20.984Z,100720.75
2023-02-17T03:15:49.871Z,100724.38
2023-02-17T03:18:19.035Z,100734.81
2023-02-17T03:20:55.291Z,100728.84
2023-02-17T03:23:23.495Z,100728.25
2023-02-17T03:25:52.252Z,100724.75
2023-02-17T03:28:20.664Z,100730.75
2023-02-17T03:30:49.170Z,100734.53
2023-02-17T03:33:17.557Z,100724.53
2023-02-17T03:35:45.991Z,100731.56
2023-02-17T03:38:14.205Z,100749.56
2023-02-17T03:40:42.873Z,100739.66
2023-02-17T03:43:11.346Z,100751.00
2023-02-17T03:45:39.491Z,100756.22
2023-02-17T03:48:08.219Z,100752.50
2023-02-17T03:50:36.473Z,100745.66
2023-02-17T03:53:05.322Z,100738.09
2023-02-17T03:55:33.925Z,100743.22
2023-02-17T03:58:02.406Z,100734.50
2023-02-17T04:00:30.804Z,100730.34
2023-02-17T04:02:59.284Z,100727.97
2023-02-17T04:05:27.671Z,100740.97
2023-02-17T04:07:56.149Z,100728.00
2023-02-17T04:10:24.656Z,100731.38
2023-02-17T04:12:52.807Z,100725.09
2023-02-17T04:15:21.025Z,100717.16
2023-02-17T04:17:49.626Z,100719.22
2023-02-17T04:20:17.845Z,100730.94
2023-02-17T04:22:46.578Z,100737.53
2023-02-17T04:25:14.894Z,100739.91
2023-02-17T04:27:43.291Z,100740.25
2023-02-17T04:30:12.510Z,100730.38
2023-02-17T04:32:40.939Z,100728.37
2023-02-17T04:35:09.244Z,100730.94
2023-02-17T04:37:37.547Z,100733.13
2023-02-17T04:40:10.753Z,100723.50
2023-02-17T04:42:39.197Z,100733.91
2023-02-17T04:45:08.411Z,100729.88
2023-02-17T04:47:37.173Z,100727.75
2023-02-17T04:50:07.049Z,100736.16
2023-02-17T04:52:35.468Z,100736.56
2023-02-17T04:55:04.910Z,100732.66
2023-02-17T04:57:33.559Z,100727.81
2023-02-17T05:00:02.352Z,100724.94
2023-02-17T05:02:30.992Z,100720.06
2023-02-17T05:04:59.336Z,100725.06
2023-02-17T05:07:27.672Z,100719.31
2023-02-17T05:09:56.045Z,100719.69
2023-02-17T05:12:24.619Z,100707.91
2023-02-17T05:14:53.057Z,100716.16
2023-02-17T05:17:21.373Z,100722.44
2023-02-17T05:19:49.559Z,100705.56
2023-02-17T05:22:18.081Z,100716.72
2023-02-17T05:24:46.388Z,100714.44
2023-02-17T05:27:14.610Z,100714.06
2023-02-17T05:29:43.146Z,100722.25
2023-02-17T05:32:11.373Z,100720.81
2023-02-17T05:34:39.603Z,100715.44
2023-02-17T05:37:08.070Z,100713.59
2023-02-17T05:39:36.406Z,100709.78
2023-02-17T05:42:04.695Z,100725.81
2023-02-17T05:44:33.125Z,100727.97
2023-02-17T05:47:01.623Z,100726.31
2023-02-17T05:49:29.930Z,100723.47
2023-02-17T05:51:58.372Z,100735.81
2023-02-17T05:54:26.537Z,100731.78
2023-02-17T05:56:54.748Z,100730.59
2023-02-17T05:59:26.326Z,100723.47
2023-02-17T06:01:54.564Z,100738.28
2023-02-17T06:04:23.163Z,100733.00
2023-02-17T06:06:51.354Z,100726.44
2023-02-17T06:09:19.808Z,100722.06
2023-02-17T06:11:48.479Z,100719.38
2023-02-17T06:14:16.592Z,100724.09
2023-02-17T06:16:44.740Z,100724.31
2023-02-17T06:19:13.192Z,100723.62
2023-02-17T06:21:41.266Z,100730.12
2023-02-17T06:24:09.574Z,100730.12
2023-02-17T06:26:38.056Z,100742.72
2023-02-17T06:29:06.880Z,100747.34
2023-02-17T06:31:35.860Z,100749.44
2023-02-17T06:34:06.568Z,100754.31
2023-02-17T06:36:35.020Z,100756.53
2023-02-17T06:39:03.648Z,100752.78
2023-02-17T06:41:32.416Z,100748.47
2023-02-17T06:44:00.537Z,100745.34
2023-02-17T06:46:28.743Z,100750.94
2023-02-17T06:48:57.339Z,100747.91
2023-02-17T06:51:25.606Z,100752.63
2023-02-17T06:53:53.898Z,100757.62
2023-02-17T06:56:22.336Z,100754.31
2023-02-17T06:58:51.186Z,100749.41
2023-02-17T07:01:26.263Z,100755.56
2023-02-17T07:03:56.208Z,100762.66
2023-02-17T07:06:25.345Z,100753.09
2023-02-17T07:08:54.140Z,100750.84
2023-02-17T07:11:22.686Z,100750.91
2023-02-17T07:13:50.766Z,100755.72
2023-02-17T07:16:21.326Z,100754.41
2023-02-17T07:18:49.664Z,100760.75
2023-02-17T07:21:17.937Z,100764.91
2023-02-17T07:23:46.604Z,100760.91
2023-02-17T07:26:15.202Z,100742.69
2023-02-17T07:28:43.530Z,100750.81
2023-02-17T07:31:15.253Z,100748.72
2023-02-17T07:33:45.582Z,100749.91
2023-02-17T07:36:15.869Z,100740.25
2023-02-17T07:38:44.713Z,100753.00
2023-02-17T07:41:17.068Z,100737.97
2023-02-17T07:43:47.771Z,100748.81
2023-02-17T07:46:17.489Z,100740.25
2023-02-17T07:48:46.672Z,100743.78
2023-02-17T07:51:18.241Z,100739.44
2023-02-17T07:53:47.595Z,100715.97
2023-02-17T07:56:17.908Z,100724.81
2023-02-17T07:58:46.810Z,100716.28
2023-02-17T08:01:17.564Z,100727.38
2023-02-17T08:03:46.729Z,100733.09
2023-02-17T08:06:18.926Z,100728.84
2023-02-17T08:09:07.047Z,100732.03
2023-02-17T08:11:54.958Z,100729.66
2023-02-17T08:14:25.321Z,100733.62
2023-02-17T08:16:53.721Z,100735.50
2023-02-17T08:19:22.823Z,100734.22
2023-02-17T08:21:51.579Z,100729.59
2023-02-17T08:24:20.289Z,100739.88
2023-02-17T08:26:49.751Z,100733.34
2023-02-17T08:29:20.241Z,100737.59
2023-02-17T08:31:52.929Z,100733.84
2023-02-17T08:34:21.373Z,100732.03
2023-02-17T08:36:49.749Z,100737.41
2023-02-17T08:39:18.692Z,100745.91
2023-02-17T08:41:48.211Z,100748.56
2023-02-17T08:44:19.330Z,100738.91
2023-02-17T08:46:49.334Z,100741.69
2023-02-17T08:49:19.938Z,100745.28
2023-02-17T08:51:49.630Z,100742.00
2023-02-17T08:54:17.948Z,100745.47
2023-02-17T08:56:46.294Z,100740.41
2023-02-17T08:59:15.797Z,100749.53
2023-02-17T09:01:44.406Z,100745.16
2023-02-17T09:04:14.682Z,100734.66
2023-02-17T09:06:49.643Z,100737.75
2023-02-17T09:09:22.400Z,100733.44
2023-02-17T09:11:51.114Z,100744.19
2023-02-17T09:14:19.408Z,100747.50
2023-02-17T09:16:47.464Z,100740.62
2023-02-17T09:19:16.290Z,100742.50
2023-02-17T09:21:45.158Z,100733.75
2023-02-17T09:24:14.635Z,100738.37
2023-02-17T09:26:43.473Z,100724.81
2023-02-17T09:29:11.808Z,100730.50
2023-02-17T09:31:40.439Z,100725.28
2023-02-17T09:34:09.012Z,100727.16
2023-02-17T09:36:41.985Z,100716.50
2023-02-17T09:39:13.560Z,100719.72
2023-02-17T09:41:52.253Z,100725.72
2023-02-17T09:44:44.973Z,100729.19
2023-02-17T09:47:20.747Z,100724.84
2023-02-17T09:49:57.225Z,100724.84
2023-02-17T09:52:36.135Z,100725.09
2023-02-17T09:55:27.981Z,100717.72
2023-02-17T09:58:05.965Z,100725.91
2023-02-17T10:00:41.632Z,100721.34
2023-02-17T10:03:17.943Z,100720.75
2023-02-17T10:05:53.659Z,100704.78
2023-02-17T10:08:27.558Z,100707.53
2023-02-17T10:11:12.305Z,100698.41
2023-02-17T10:13:44.633Z,100700.22
2023-02-17T10:16:21.807Z,100695.59
2023-02-17T10:19:04.849Z,100686.34
2023-02-17T10:21:40.725Z,100685.13
2023-02-17T10:24:09.938Z,100684.66
2023-02-17T10:27:00.758Z,100674.78
2023-02-17T10:29:41.835Z,100680.72
2023-02-17T10:32:27.713Z,100670.66
2023-02-17T10:35:16.165Z,100662.72
2023-02-17T10:38:02.284Z,100659.25
2023-02-17T10:40:31.563Z,100658.47
2023-02-17T10:43:07.752Z,100644.37
2023-02-17T10:45:43.007Z,100642.56
2023-02-17T10:48:40.868Z,100642.38
2023-02-17T10:51:15.610Z,100627.63
2023-02-17T10:53:48.806Z,100627.31
2023-02-17T10:56:23.619Z,100632.78
2023-02-17T10:59:00.856Z,100622.31
2023-02-17T11:01:29.561Z,100609.87
2023-02-17T11:04:06.728Z,100615.16
2023-02-17T11:07:11.542Z,100609.72
2023-02-17T11:09:46.229Z,100613.56
2023-02-17T11:12:34.536Z,100599.19
2023-02-17T11:15:05.298Z,100606.87
2023-02-17T11:17:39.523Z,100603.63
2023-02-17T11:20:28.559Z,100600.72
2023-02-17T11:23:04.354Z,100606.81
2023-02-17T11:25:35.500Z,100601.59
2023-02-17T11:28:13.087Z,100603.00
2023-02-17T11:30:51.226Z,100599.94
2023-02-17T11:33:31.459Z,100602.56
2023-02-17T11:36:00.647Z,100592.28
2023-02-17T11:38:38.902Z,100596.91
2023-02-17T11:41:08.716Z,100593.66
2023-02-17T11:43:38.085Z,100582.63
2023-02-17T11:46:24.592Z,100586.75
2023-02-17T11:49:18.986Z,100581.94
2023-02-17T11:52:05.256Z,100578.78
2023-02-17T11:55:00.211Z,100579.06
2023-02-17T11:57:40.849Z,100578.12
2023-02-17T12:00:15.192Z,100578.63
2023-02-17T12:03:01.369Z,100573.13
2023-02-17T12:05:58.944Z,100580.13
2023-02-17T12:09:05.229Z,100585.56
2023-02-17T12:12:01.683Z,100574.47
2023-02-17T12:14:41.296Z,100566.75
2023-02-17T12:17:58.155Z,100568.63
2023-02-17T12:20:47.551Z,100550.25
2023-02-17T12:23:36.770Z,100550.41
2023-02-17T12:26:20.149Z,100552.06
2023-02-17T12:29:10.789Z,100548.81
2023-02-17T12:31:49.068Z,100541.31
2023-02-17T12:34:26.161Z,100544.44
2023-02-17T12:36:56.636Z,100548.69
2023-02-17T12:39:56.173Z,100547.47
2023-02-17T12:42:37.374Z,100533.78
2023-02-17T12:45:16.076Z,100531.56
2023-02-17T12:47:55.450Z,100539.81
2023-02-17T12:50:33.364Z,100541.47
2023-02-17T12:53:06.778Z,100530.06
2023-02-17T12:55:48.821Z,100526.62
2023-02-17T12:58:26.903Z,100525.53
2023-02-17T13:01:07.267Z,100533.50
2023-02-17T13:03:37.030Z,100522.94
2023-02-17T13:06:11.325Z,100524.16
2023-02-17T13:08:47.022Z,100529.09
2023-02-17T13:11:34.555Z,100530.34
2023-02-17T13:14:25.283Z,100524.72
2023-02-17T13:16:54.730Z,100534.41
2023-02-17T13:19:31.628Z,100536.06
2023-02-17T13:22:02.444Z,100524.50
2023-02-17T13:24:36.831Z,100537.69
2023-02-17T13:27:23.028Z,100540.00
2023-02-17T13:30:18.474Z,100536.84
2023-02-17T13:32:46.979Z,100534.31
2023-02-17T13:35:30.779Z,100539.59
2023-02-17T13:37:59.433Z,100536.22
2023-02-17T13:40:30.604Z,100525.66
2023-02-17T13:43:28.639Z,100520.91
2023-02-17T13:46:02.938Z,100526.62
2023-02-17T13:48:36.067Z,100525.06
2023-02-17T13:51:23.767Z,100509.03
2023-02-17T13:53:52.852Z,100514.09
2023-02-17T13:56:30.316Z,100503.06
2023-02-17T13:59:11.645Z,100504.06
2023-02-17T14:01:42.694Z,100502.44
2023-02-17T14:04:28.074Z,100499.41
2023-02-17T14:07:03.926Z,100495.59
2023-02-17T14:09:35.471Z,100497.34
2023-02-17T14:12:06.839Z,100500.78
2023-02-17T14:14:38.452Z,100493.00
2023-02-17T14:17:13.310Z,100494.87
2023-02-17T14:19:44.123Z,100489.69
2023-02-17T14:22:33.389Z,100488.44
2023-02-17T14:25:13.831Z,100477.50
2023-02-17T14:27:47.834Z,100478.59
2023-02-17T14:30:30.359Z,100478.53
2023-02-17T14:33:18.346Z,100478.41
2023-02-17T14:35:59.582Z,100482.41
2023-02-17T14:38:32.086Z,100481.94
2023-02-17T14:41:02.248Z,100485.47
2023-02-17T14:43:30.554Z,100480.41
2023-02-17T14:45:58.634Z,100476.47
2023-02-17T14:48:28.137Z,100461.41
2023-02-17T14:50:57.619Z,100463.16
2023-02-17T14:53:27.699Z,100451.25
2023-02-17T14:56:01.231Z,100460.53
2023-02-17T14:58:30.326Z,100456.31
2023-02-17T15:00:59.764Z,100442.59
2023-02-17T15:03:28.596Z,100448.75
2023-02-17T15:05:57.228Z,100453.94
2023-02-17T15:08:33.419Z,100448.75
2023-02-17T15:11:02.316Z,100444.75
2023-02-17T15:13:31.904Z,100447.25
2023-02-17T15:16:00.644Z,100446.16
2023-02-17T15:18:29.283Z,100445.34
2023-02-17T15:20:57.869Z,100439.19
2023-02-17T15:23:30.659Z,100435.75
2023-02-17T15:26:00.380Z,100434.59
2023-02-17T15:28:28.916Z,100425.53
2023-02-17T15:30:57.164Z,100427.69
2023-02-17T15:33:26.046Z,100432.47
2023-02-17T15:35:57.558Z,100431.28
2023-02-17T15:38:27.598Z,100432.38
2023-02-17T15:40:58.618Z,100442.19
2023-02-17T15:46:13.593Z,100435.69
2023-02-17T15:48:43.869Z,100431.19
2023-02-17T15:51:16.184Z,100431.66
2023-02-17T15:53:46.366Z,100426.53
2023-02-17T15:56:23.796Z,100419.22
2023-02-17T15:58:53.769Z,100417.00
2023-02-17T16:01:33.828Z,100415.59
2023-02-17T16:04:02.647Z,100410.19
2023-02-17T16:06:31.042Z,100419.03
2023-02-17T16:08:59.759Z,100406.66
2023-02-17T16:11:28.940Z,100406.34
2023-02-17T16:13:57.330Z,100413.06
2023-02-17T16:16:34.554Z,100411.66
2023-02-17T16:19:03.104Z,100423.13
2023-02-17T16:21:34.578Z,100420.31
2023-02-17T16:24:03.351Z,100430.31
2023-02-17T16:26:35.186Z,100416.47
2023-02-17T16:29:14.538Z,100424.63
2023-02-17T16:31:43.548Z,100414.50
2023-02-17T16:34:17.468Z,100418.53
2023-02-17T16:36:47.010Z,100409.66
2023-02-17T16:39:17.699Z,100414.28
2023-02-17T16:41:47.659Z,100414.88
2023-02-17T16:44:18.944Z,100408.84
2023-02-17T16:46:52.773Z,100402.84
2023-02-17T16:49:32.589Z,100398.84
2023-02-17T16:52:03.000Z,100389.50
2023-02-17T16:54:35.176Z,100389.25
2023-02-17T16:57:04.369Z,100383.22
2023-02-17T16:59:32.910Z,100393.34
2023-02-17T17:02:01.788Z,100392.06
2023-02-17T17:04:30.243Z,100403.09
2023-02-17T17:06:58.628Z,100388.72
2023-02-17T17:09:27.998Z,100395.09
2023-02-17T17:11:56.860Z,100382.56
2023-02-17T17:14:25.671Z,100385.72
2023-02-17T17:17:01.067Z,100369.81
2023-02-17T17:19:29.644Z,100373.31
2023-02-17T17:21:57.848Z,100371.91
2023-02-17T17:24:26.489Z,100373.09
2023-02-17T17:26:56.010Z,100363.16
2023-02-17T17:29:24.426Z,100369.75
2023-02-17T17:31:52.880Z,100368.78
2023-02-17T17:34:22.722Z,100364.16
2023-02-17T17:36:51.131Z,100366.19
2023-02-17T17:39:23.315Z,100367.22
2023-02-17T17:41:52.468Z,100369.31
2023-02-17T17:44:22.081Z,100366.63
2023-02-17T17:46:50.558Z,100371.41
2023-02-17T17:49:19.522Z,100368.19
2023-02-17T17:51:48.964Z,100372.44
2023-02-17T17:54:17.623Z,100363.13
2023-02-17T17:56:47.519Z,100353.69
2023-02-17T17:59:15.950Z,100342.84
2023-02-17T18:01:45.879Z,100338.25
2023-02-17T18:04:14.708Z,100340.47
2023-02-17T18:06:50.516Z,100342.13
2023-02-17T18:09:32.066Z,100346.06
2023-02-17T18:12:04.540Z,100346.19
2023-02-17T18:14:36.832Z,100346.66
2023-02-17T18:17:05.927Z,100331.94
2023-02-17T18:19:34.822Z,100338.25
2023-02-17T18:22:03.308Z,100332.28
2023-02-17T18:24:31.710Z,100332.78
2023-02-17T18:27:00.474Z,100329.06
2023-02-17T18:29:29.388Z,100323.88
2023-02-17T18:32:00.858Z,100326.47
2023-02-17T18:34:29.644Z,100324.25
2023-02-17T18:36:58.403Z,100333.97
2023-02-17T18:39:27.717Z,100323.50
2023-02-17T18:41:56.497Z,100320.91
2023-02-17T18:44:24.919Z,100316.59
2023-02-17T18:46:53.242Z,100318.13
2023-02-17T18:49:21.948Z,100320.03
2023-02-17T18:51:50.845Z,100306.16
2023-02-17T18:54:19.225Z,100311.81
2023-02-17T18:56:47.978Z,100310.88
2023-02-17T18:59:16.667Z,100300.41
2023-02-17T19:01:45.408Z,100308.31
2023-02-17T19:04:15.412Z,100312.63
2023-02-17T19:06:43.941Z,100295.38
2023-02-17T19:09:12.720Z,100292.91
2023-02-17T19:11:41.498Z,100291.47
2023-02-17T19:14:10.394Z,100285.34
2023-02-17T19:16:39.236Z,100283.84
2023-02-17T19:19:09.149Z,100286.50
2023-02-17T19:21:40.130Z,100292.66
2023-02-17T19:24:11.660Z,100282.88
2023-02-17T19:26:40.211Z,100285.94
2023-02-17T19:29:09.064Z,100288.50
2023-02-17T19:31:38.264Z,100285.19
2023-02-17T19:34:09.584Z,100282.97
2023-02-17T19:36:38.354Z,100287.78
2023-02-17T19:39:07.687Z,100277.66
2023-02-17T19:41:36.619Z,100286.38
2023-02-17T19:44:06.977Z,100274.37
2023-02-17T19:46:35.641Z,100278.41
2023-02-17T19:49:04.699Z,100281.84
2023-02-17T19:51:34.042Z,100283.06
2023-02-17T19:54:02.786Z,100263.75
2023-02-17T19:56:33.098Z,100254.44
2023-02-17T19:59:02.168Z,100241.25
2023-02-17T20:01:34.464Z,100239.12
2023-02-17T20:04:05.639Z,100229.12
2023-02-17T20:06:40.000Z,100219.09
2023-02-17T20:09:13.519Z,100217.69
2023-02-17T20:11:45.264Z,100205.31
2023-02-17T20:14:14.079Z,100199.63
2023-02-17T20:16:42.827Z,100197.72
2023-02-17T20:19:11.050Z,100193.59
2023-02-17T20:21:44.758Z,100196.19
2023-02-17T20:24:21.754Z,100183.16
2023-02-17T20:26:53.725Z,100180.84
2023-02-17T20:29:22.294Z,100165.19
2023-02-17T20:31:51.315Z,100161.06
2023-02-17T20:34:27.733Z,100161.63
2023-02-17T20:36:57.954Z,100161.31
2023-02-17T20:39:27.239Z,100166.19
2023-02-17T20:41:57.109Z,100171.19
2023-02-17T20:44:27.726Z,100183.25
2023-02-17T20:47:03.411Z,100171.88
2023-02-17T20:49:31.864Z,100162.87
2023-02-17T20:52:00.644Z,100162.94
2023-02-17T20:54:29.187Z,100164.84
2023-02-17T20:57:01.021Z,100173.06
2023-02-17T20:59:30.090Z,100174.47
2023-02-17T21:01:58.572Z,100179.94
2023-02-17T21:04:26.848Z,100182.75
2023-02-17T21:06:56.168Z,100184.41
2023-02-17T21:09:24.829Z,100193.28
2023-02-17T21:11:53.245Z,100174.25
2023-02-17T21:14:23.164Z,100192.59
2023-02-17T21:16:51.333Z,100196.91
2023-02-17T21:19:19.713Z,100179.66
2023-02-17T21:21:48.525Z,100196.53
2023-02-17T21:24:16.850Z,100193.63
2023-02-17T21:26:45.168Z,100182.22
2023-02-17T21:29:14.289Z,100195.63
2023-02-17T21:31:42.859Z,100194.97
2023-02-17T21:34:11.207Z,100191.31
2023-02-17T21:36:40.100Z,100190.53
2023-02-17T21:39:08.400Z,100194.00
2023-02-17T21:41:41.208Z,100190.50
2023-02-17T21:44:31.610Z,100195.66
2023-02-17T21:46:59.987Z,100196.28
2023-02-17T21:49:28.578Z,100184.75
2023-02-17T21:51:57.124Z,100185.06
2023-02-17T21:54:25.657Z,100181.34
2023-02-17T21:56:54.449Z,100196.91
2023-02-17T21:59:23.205Z,100180.13
2023-02-17T22:01:53.251Z,100183.50
2023-02-17T22:04:22.249Z,100187.22
2023-02-17T22:06:50.265Z,100198.31
2023-02-17T22:09:18.901Z,100186.88
2023-02-17T22:11:47.680Z,100185.41
2023-02-17T22:14:18.927Z,100194.75
2023-02-17T22:16:48.849Z,100174.84
2023-02-17T22:19:21.142Z,100159.59
2023-02-17T22:21:50.760Z,100178.88
2023-02-17T22:24:22.880Z,100170.34
2023-02-17T22:26:51.421Z,100155.59
2023-02-17T22:29:20.094Z,100164.12
2023-02-17T22:31:50.467Z,100170.69
2023-02-17T22:34:19.126Z,100159.06
2023-02-17T22:36:47.364Z,100153.03
2023-02-17T22:39:15.826Z,100173.31
2023-02-17T22:41:45.040Z,100178.78
2023-02-17T22:44:13.196Z,100164.34
2023-02-17T22:46:41.336Z,100166.28
2023-02-17T22:49:10.228Z,100167.34
2023-02-17T22:51:39.679Z,100168.91
2023-02-17T22:54:08.706Z,100173.88
2023-02-17T22:56:37.639Z,100166.31
2023-02-17T22:59:07.480Z,100156.25
2023-02-17T23:01:37.939Z,100147.97
2023-02-17T23:04:06.942Z,100161.25
2023-02-17T23:06:37.373Z,100154.44
2023-02-17T23:09:07.756Z,100156.75
2023-02-17T23:11:49.914Z,100158.56
2023-02-17T23:14:19.881Z,100143.41
2023-02-17T23:16:48.958Z,100143.13
2023-02-17T23:19:19.621Z,100157.53
2023-02-17T23:21:50.920Z,100142.06
2023-02-17T23:24:21.083Z,100143.16
2023-02-17T23:26:50.300Z,100139.59
2023-02-17T23:29:18.602Z,100149.00
2023-02-17T23:31:47.246Z,100150.62
2023-02-17T23:34:15.993Z,100148.69
2023-02-17T23:36:46.200Z,100130.03
2023-02-17T23:39:15.839Z,100149.28
2023-02-17T23:41:44.812Z,100137.00
2023-02-17T23:44:15.085Z,100141.81
2023-02-17T23:46:44.681Z,100140.72
2023-02-17T23:49:16.995Z,100142.91
2023-02-17T23:51:46.819Z,100132.47
2023-02-17T23:54:15.552Z,100124.66
2023-02-17T23:56:43.876Z,100125.44
2023-02-17T23:59:13.437Z,100128.13
